createdAt,value
2019-04-10T00:01:12.491Z,4.72
2019-04-10T00:06:18.683Z,4.95
2019-04-10T00:11:25.006Z,4.55
2019-04-10T00:16:31.984Z,3.50
2019-04-10T00:21:38.045Z,3.65
2019-04-10T00:26:44.314Z,3.20
2019-04-10T00:31:50.831Z,3.10
2019-04-10T00:36:57.523Z,4.37
2019-04-10T00:42:03.652Z,3.30
2019-04-10T00:47:10.830Z,3.85
2019-04-10T00:52:17.249Z,3.50
2019-04-10T00:57:23.680Z,3.47
2019-04-10T01:02:29.807Z,3.30
2019-04-10T01:07:39.792Z,3.77
2019-04-10T01:12:44.079Z,4.22
2019-04-10T01:17:50.699Z,5.15
2019-04-10T01:22:57.329Z,4.50
2019-04-10T01:28:04.602Z,4.30
2019-04-10T01:33:10.649Z,4.50
2019-04-10T01:38:17.587Z,4.22
2019-04-10T01:43:24.545Z,5.62
2019-04-10T01:48:30.826Z,4.72
2019-04-10T01:53:37.685Z,4.08
2019-04-10T01:58:45.990Z,4.60
2019-04-10T02:03:52.131Z,4.42
2019-04-10T02:08:58.417Z,4.95
2019-04-10T02:14:05.627Z,4.50
2019-04-10T02:19:12.241Z,4.08
2019-04-10T02:24:18.771Z,4.22
2019-04-10T02:29:25.957Z,4.30
2019-04-10T02:34:32.709Z,3.92
2019-04-10T02:39:44.751Z,4.35
2019-04-10T02:44:48.315Z,4.33
2019-04-10T02:49:56.551Z,4.30
2019-04-10T02:55:03.795Z,5.28
2019-04-10T03:00:12.780Z,4.25
2019-04-10T03:05:20.064Z,3.85
2019-04-10T03:10:50.533Z,4.60
2019-04-10T03:15:55.886Z,4.62
2019-04-10T03:21:02.723Z,5.78
2019-04-10T03:26:09.719Z,8.00
2019-04-10T03:31:16.021Z,5.87
2019-04-10T03:36:21.939Z,5.67
2019-04-10T03:41:28.246Z,4.87
2019-04-10T03:46:37.068Z,3.85
2019-04-10T03:51:43.006Z,3.95
2019-04-10T03:56:50.018Z,4.80
2019-04-10T04:01:56.242Z,6.50
2019-04-10T04:07:02.492Z,5.78
2019-04-10T04:12:08.651Z,5.75
2019-04-10T04:17:15.762Z,7.67
2019-04-10T04:22:22.927Z,7.20
2019-04-10T04:27:29.291Z,9.80
2019-04-10T04:32:35.475Z,10.25
2019-04-10T04:37:42.243Z,9.03
2019-04-10T04:42:49.371Z,8.63
2019-04-10T04:47:55.625Z,8.70
2019-04-10T04:53:02.345Z,7.62
2019-04-10T04:58:08.378Z,8.38
2019-04-10T05:03:14.317Z,8.18
2019-04-10T05:08:20.410Z,7.90
2019-04-10T05:13:26.759Z,8.08
2019-04-10T05:18:33.010Z,11.57
2019-04-10T05:23:39.132Z,15.00
2019-04-10T05:28:46.457Z,13.32
2019-04-10T05:33:53.278Z,12.98
2019-04-10T05:39:00.038Z,10.68
2019-04-10T05:44:07.224Z,9.53
2019-04-10T05:49:14.876Z,8.50
2019-04-10T05:54:21.194Z,12.73
2019-04-10T05:59:28.088Z,12.93
2019-04-10T06:04:35.647Z,11.85
2019-04-10T06:09:52.743Z,8.90
2019-04-10T06:14:50.488Z,8.10
2019-04-10T06:19:56.748Z,10.00
2019-04-10T06:25:03.963Z,10.43
2019-04-10T06:30:12.113Z,9.93
2019-04-10T06:35:18.447Z,11.38
2019-04-10T06:40:27.375Z,11.03
2019-04-10T06:45:32.216Z,11.50
2019-04-10T06:50:39.215Z,10.98
2019-04-10T06:55:46.855Z,11.00
2019-04-10T07:00:53.833Z,10.10
2019-04-10T07:06:09.935Z,10.20
2019-04-10T07:11:12.914Z,10.45
2019-04-10T07:16:17.966Z,9.68
2019-04-10T07:21:24.492Z,9.38
2019-04-10T07:26:37.801Z,10.05
2019-04-10T07:31:39.740Z,9.55
2019-04-10T07:36:46.866Z,9.50
2019-04-10T07:41:53.644Z,9.40
2019-04-10T07:47:00.855Z,9.15
2019-04-10T07:52:06.958Z,8.80
2019-04-10T07:57:13.851Z,9.55
2019-04-10T08:02:21.087Z,9.23
2019-04-10T08:07:31.740Z,7.95
2019-04-10T08:12:44.786Z,8.10
2019-04-10T08:17:44.448Z,8.38
2019-04-10T08:22:51.569Z,8.50
2019-04-10T08:27:58.510Z,9.00
2019-04-10T08:33:06.121Z,8.80
2019-04-10T08:38:13.108Z,8.03
2019-04-10T08:43:20.200Z,6.78
2019-04-10T08:48:29.024Z,7.85
2019-04-10T08:53:34.495Z,5.12
2019-04-10T08:58:41.271Z,4.53
2019-04-10T09:03:47.369Z,3.70
2019-04-10T09:08:53.585Z,3.35
2019-04-10T09:13:59.463Z,2.80
2019-04-10T09:19:05.768Z,2.92
2019-04-10T09:24:14.805Z,2.77
2019-04-10T09:29:21.883Z,2.80
2019-04-10T09:34:28.148Z,2.35
2019-04-10T09:39:35.630Z,2.83
2019-04-10T09:44:41.990Z,2.70
2019-04-10T09:49:49.296Z,2.50
2019-04-10T09:54:55.504Z,2.40
2019-04-10T10:00:01.546Z,2.87
2019-04-10T10:05:08.481Z,2.95
2019-04-10T10:10:15.050Z,2.90
2019-04-10T10:15:21.276Z,2.27
2019-04-10T10:20:27.901Z,2.30
2019-04-10T10:25:35.415Z,3.17
2019-04-10T10:30:41.808Z,2.90
2019-04-10T10:35:47.755Z,2.50
2019-04-10T10:40:54.850Z,2.70
2019-04-10T10:46:01.276Z,2.55
2019-04-10T10:51:08.677Z,2.25
2019-04-10T10:56:16.165Z,2.17
2019-04-10T11:01:22.457Z,2.35
2019-04-10T11:06:28.639Z,2.95
2019-04-10T11:11:35.032Z,2.50
2019-04-10T11:16:41.298Z,2.35
2019-04-10T11:21:47.602Z,2.75
2019-04-10T11:26:54.060Z,2.87
2019-04-10T11:32:00.233Z,2.90
2019-04-10T11:37:21.581Z,2.47
2019-04-10T11:42:14.659Z,2.15
2019-04-10T11:47:23.585Z,2.35
2019-04-10T11:52:36.234Z,2.15
2019-04-10T11:57:37.308Z,2.10
2019-04-10T12:02:47.032Z,2.30
2019-04-10T12:08:23.378Z,2.27
2019-04-10T12:12:59.851Z,2.77
2019-04-10T12:18:06.652Z,3.67
2019-04-10T12:23:12.707Z,2.20
2019-04-10T12:28:20.114Z,2.30
2019-04-10T12:33:26.226Z,2.05
2019-04-10T12:38:32.475Z,3.27
2019-04-10T12:43:38.975Z,2.00
2019-04-10T12:48:45.246Z,9.20
2019-04-10T12:53:51.989Z,2.33
2019-04-10T12:58:59.307Z,2.50
2019-04-10T13:04:05.744Z,2.85
2019-04-10T13:09:14.425Z,3.22
2019-04-10T13:14:20.655Z,2.40
2019-04-10T13:19:27.119Z,3.45
2019-04-10T13:24:33.425Z,4.17
2019-04-10T13:29:40.520Z,2.77
2019-04-10T13:34:46.819Z,3.00
2019-04-10T13:39:53.489Z,3.15
2019-04-10T13:44:59.652Z,3.00
2019-04-10T13:50:06.600Z,3.47
2019-04-10T13:55:12.725Z,3.58
2019-04-10T14:00:27.986Z,3.15
2019-04-10T14:05:34.408Z,3.40
2019-04-10T14:10:41.804Z,2.60
2019-04-10T14:15:48.493Z,2.40
2019-04-10T14:20:55.490Z,2.92
2019-04-10T14:26:43.740Z,3.08
2019-04-10T14:31:53.178Z,3.50
2019-04-10T14:36:59.435Z,3.25
2019-04-10T14:42:06.500Z,3.58
2019-04-10T14:47:13.482Z,4.40
2019-04-10T14:52:19.818Z,4.45
2019-04-10T14:57:26.590Z,3.70
2019-04-10T15:02:32.835Z,3.72
2019-04-10T15:07:39.426Z,4.00
2019-04-10T15:12:45.822Z,4.03
2019-04-10T15:17:51.916Z,3.90
2019-04-10T15:22:58.642Z,3.70
2019-04-10T15:28:04.926Z,4.12
2019-04-10T15:33:12.115Z,3.80
2019-04-10T15:38:18.337Z,3.87
2019-04-10T15:43:26.139Z,4.40
2019-04-10T15:48:33.614Z,3.70
2019-04-10T15:53:39.732Z,5.15
2019-04-10T15:58:45.914Z,5.17
2019-04-10T16:03:52.738Z,5.83
2019-04-10T16:08:59.182Z,6.95
2019-04-10T16:14:17.032Z,6.62
2019-04-10T16:19:36.691Z,9.88
2019-04-10T16:24:43.454Z,9.55
2019-04-10T16:29:49.574Z,11.53
2019-04-10T16:34:56.792Z,10.75
2019-04-10T16:40:04.398Z,11.88
2019-04-10T16:45:11.115Z,12.58
2019-04-10T16:50:17.583Z,12.47
2019-04-10T16:55:24.877Z,13.80
2019-04-10T17:00:31.259Z,14.55
2019-04-10T17:05:37.927Z,10.48
2019-04-10T17:10:44.851Z,13.40
2019-04-10T17:15:51.760Z,12.43
2019-04-10T17:20:58.012Z,13.28
2019-04-10T17:26:06.590Z,12.80
2019-04-10T17:31:14.259Z,12.73
2019-04-10T17:36:21.062Z,11.80
2019-04-10T17:41:27.989Z,10.55
2019-04-10T17:46:35.251Z,9.20
2019-04-10T17:51:41.944Z,7.87
2019-04-10T17:56:48.552Z,8.13
2019-04-10T18:01:56.947Z,7.95
2019-04-10T18:07:03.914Z,8.73
2019-04-10T18:12:10.602Z,7.70
2019-04-10T18:17:16.757Z,8.88
2019-04-10T18:22:22.788Z,8.68
2019-04-10T18:27:30.034Z,9.83
2019-04-10T18:32:36.656Z,9.88
2019-04-10T18:37:42.938Z,9.93
2019-04-10T18:42:49.243Z,9.98
2019-04-10T18:47:56.459Z,11.15
2019-04-10T18:53:03.744Z,10.68
2019-04-10T18:58:14.127Z,11.57
2019-04-10T19:03:28.061Z,10.35
2019-04-10T19:08:34.279Z,13.00
2019-04-10T19:13:41.125Z,13.22
2019-04-10T19:18:47.986Z,13.45
2019-04-10T19:23:55.490Z,15.70
2019-04-10T19:29:03.306Z,16.80
2019-04-10T19:34:09.441Z,16.67
2019-04-10T19:39:16.057Z,17.07
2019-04-10T19:44:23.107Z,16.75
2019-04-10T19:49:29.100Z,17.07
2019-04-10T19:54:35.402Z,18.70
2019-04-10T19:59:42.004Z,17.25
2019-04-10T20:04:48.572Z,18.07
2019-04-10T20:09:54.919Z,16.95
2019-04-10T20:15:00.948Z,16.35
2019-04-10T20:20:08.883Z,18.45
2019-04-10T20:25:16.402Z,21.40
2019-04-10T20:30:25.822Z,18.65
2019-04-10T20:35:32.117Z,18.90
2019-04-10T20:40:38.439Z,16.48
2019-04-10T20:45:45.457Z,18.67
2019-04-10T20:50:52.285Z,18.02
2019-04-10T20:55:58.343Z,17.60
2019-04-10T21:01:04.468Z,16.95
2019-04-10T21:06:11.303Z,16.95
2019-04-10T21:11:17.621Z,16.90
2019-04-10T21:16:23.780Z,17.62
2019-04-10T21:21:30.739Z,17.12
2019-04-10T21:26:36.797Z,16.97
2019-04-10T21:32:03.244Z,17.17
2019-04-10T21:37:10.185Z,15.80
2019-04-10T21:42:21.881Z,17.87
2019-04-10T21:47:25.600Z,17.17
2019-04-10T21:52:32.650Z,15.50
2019-04-10T21:57:38.697Z,16.27
2019-04-10T22:02:45.524Z,14.87
2019-04-10T22:08:17.972Z,14.23
2019-04-10T22:13:24.167Z,13.20
2019-04-10T22:18:30.587Z,13.32
2019-04-10T22:23:37.908Z,13.58
2019-04-10T22:28:45.420Z,13.75
2019-04-10T22:33:52.366Z,11.90
2019-04-10T22:38:58.413Z,12.98
2019-04-10T22:44:05.475Z,13.45
2019-04-10T22:49:12.414Z,13.50
2019-04-10T22:54:19.854Z,12.95
2019-04-10T22:59:26.289Z,13.93
2019-04-10T23:04:32.815Z,13.48
2019-04-10T23:09:40.234Z,13.10
2019-04-10T23:14:47.033Z,12.73
2019-04-10T23:19:54.199Z,13.08
2019-04-10T23:25:01.148Z,13.13
2019-04-10T23:30:12.846Z,13.95
2019-04-10T23:35:19.154Z,13.20
2019-04-10T23:40:25.306Z,12.75
2019-04-10T23:45:31.562Z,13.00
2019-04-10T23:50:38.608Z,13.65
2019-04-10T23:55:44.815Z,13.83
